createdAt,value
2017-08-10T00:00:19.930Z,0
2017-08-10T00:01:21.480Z,0
2017-08-10T00:02:43.097Z,0
2017-08-10T00:03:44.508Z,0
2017-08-10T00:05:06.151Z,0
2017-08-10T00:06:07.569Z,0
2017-08-10T00:07:29.067Z,0
2017-08-10T00:08:30.478Z,0
2017-08-10T00:09:52.194Z,0
2017-08-10T00:10:53.675Z,0
2017-08-10T00:12:15.273Z,0
2017-08-10T00:13:16.774Z,0
2017-08-10T00:14:38.385Z,0
2017-08-10T00:15:39.796Z,0
2017-08-10T00:17:01.370Z,0
2017-08-10T00:18:02.948Z,0
2017-08-10T00:19:24.445Z,0
2017-08-10T00:20:25.854Z,0
2017-08-10T00:21:47.374Z,0
2017-08-10T00:22:48.880Z,0
2017-08-10T00:24:10.381Z,0
2017-08-10T00:25:11.791Z,0
2017-08-10T00:26:33.310Z,0
2017-08-10T00:27:34.777Z,0
2017-08-10T00:28:56.306Z,0
2017-08-10T00:29:57.728Z,0
2017-08-10T00:31:19.251Z,0
2017-08-10T00:32:20.662Z,0
2017-08-10T00:33:42.166Z,0
2017-08-10T00:34:43.575Z,0
2017-08-10T00:36:05.097Z,0
2017-08-10T00:37:06.507Z,0
2017-08-10T00:38:28.003Z,0
2017-08-10T00:39:29.416Z,0
2017-08-10T00:40:50.937Z,0
2017-08-10T00:41:52.345Z,0
2017-08-10T00:43:13.890Z,0
2017-08-10T00:44:15.298Z,0
2017-08-10T00:45:36.816Z,0
2017-08-10T00:46:38.277Z,0
2017-08-10T00:47:59.807Z,0
2017-08-10T00:49:01.225Z,0
2017-08-10T00:50:22.780Z,0
2017-08-10T00:51:24.237Z,0
2017-08-10T00:52:45.741Z,0
2017-08-10T00:53:47.152Z,0
2017-08-10T00:55:08.648Z,0
2017-08-10T00:56:10.058Z,0
2017-08-10T00:57:31.580Z,0
2017-08-10T00:58:32.991Z,0
2017-08-10T00:59:54.489Z,0
2017-08-10T01:00:55.898Z,0
2017-08-10T01:02:17.411Z,0
2017-08-10T01:03:18.823Z,0
2017-08-10T01:04:40.319Z,0
2017-08-10T01:05:41.731Z,0
2017-08-10T01:07:03.473Z,0
2017-08-10T01:08:04.881Z,0
2017-08-10T01:09:26.380Z,0
2017-08-10T01:10:27.923Z,0
2017-08-10T01:11:49.431Z,0
2017-08-10T01:12:50.843Z,0
2017-08-10T01:14:12.340Z,0
2017-08-10T01:15:13.748Z,0
2017-08-10T01:16:35.269Z,0
2017-08-10T01:17:36.680Z,0
2017-08-10T01:18:58.177Z,0
2017-08-10T01:19:59.604Z,0
2017-08-10T01:21:21.122Z,0
2017-08-10T01:22:22.532Z,0
2017-08-10T01:23:44.031Z,0
2017-08-10T01:24:45.440Z,0
2017-08-10T01:26:06.962Z,0
2017-08-10T01:27:08.371Z,0
2017-08-10T01:28:29.869Z,0
2017-08-10T01:29:31.280Z,0
2017-08-10T01:30:52.797Z,0
2017-08-10T01:31:54.208Z,0
2017-08-10T01:33:15.703Z,0
2017-08-10T01:34:17.113Z,0
2017-08-10T01:35:38.631Z,0
2017-08-10T01:36:40.040Z,0
2017-08-10T01:38:01.539Z,0
2017-08-10T01:39:02.949Z,0
2017-08-10T01:40:24.445Z,0
2017-08-10T01:41:25.855Z,0
2017-08-10T01:42:47.370Z,0
2017-08-10T01:43:48.781Z,0
2017-08-10T01:45:10.278Z,0
2017-08-10T01:46:11.687Z,0
2017-08-10T01:47:33.204Z,0
2017-08-10T01:48:34.614Z,0
2017-08-10T01:49:56.108Z,0
2017-08-10T01:50:57.516Z,0
2017-08-10T01:52:19.040Z,0
2017-08-10T01:53:20.451Z,0
2017-08-10T01:54:41.945Z,0
2017-08-10T01:55:43.355Z,0
2017-08-10T01:57:04.870Z,0
2017-08-10T01:58:06.280Z,0
2017-08-10T01:59:27.776Z,0
2017-08-10T02:00:29.188Z,0
2017-08-10T02:01:50.703Z,0
2017-08-10T02:02:52.114Z,0
2017-08-10T02:04:13.612Z,0
2017-08-10T02:05:15.022Z,0
2017-08-10T02:06:36.545Z,0
2017-08-10T02:07:37.955Z,0
2017-08-10T02:08:59.451Z,0
2017-08-10T02:10:00.863Z,0
2017-08-10T02:11:22.379Z,0
2017-08-10T02:12:23.791Z,0
2017-08-10T02:13:45.286Z,0
2017-08-10T02:14:46.695Z,0
2017-08-10T02:16:08.220Z,0
2017-08-10T02:17:09.629Z,0
2017-08-10T02:18:31.126Z,0
2017-08-10T02:19:32.534Z,0
2017-08-10T02:20:54.049Z,0
2017-08-10T02:21:55.459Z,0
2017-08-10T02:23:16.958Z,0
2017-08-10T02:24:18.366Z,0
2017-08-10T02:25:39.880Z,0
2017-08-10T02:26:41.290Z,0
2017-08-10T02:28:02.791Z,0
2017-08-10T02:29:04.202Z,0
2017-08-10T02:30:25.701Z,0
2017-08-10T02:31:27.110Z,0
2017-08-10T02:32:48.626Z,0
2017-08-10T02:33:50.036Z,0
2017-08-10T02:35:11.534Z,0
2017-08-10T02:36:12.943Z,0
2017-08-10T02:37:34.456Z,0
2017-08-10T02:38:35.868Z,0
2017-08-10T02:39:57.366Z,0
2017-08-10T02:40:58.777Z,0
2017-08-10T02:42:20.294Z,0
2017-08-10T02:43:21.707Z,0
2017-08-10T02:44:43.197Z,0
2017-08-10T02:45:44.607Z,0
2017-08-10T02:47:06.125Z,0
2017-08-10T02:48:07.538Z,0
2017-08-10T02:49:29.038Z,0
2017-08-10T02:50:30.446Z,0
2017-08-10T02:51:51.963Z,0
2017-08-10T02:52:53.374Z,0
2017-08-10T02:54:14.872Z,0
2017-08-10T02:55:16.281Z,0
2017-08-10T02:56:38.791Z,0
2017-08-10T02:57:40.199Z,0
2017-08-10T02:59:01.698Z,0
2017-08-10T03:00:03.107Z,0
2017-08-10T03:01:24.627Z,0
2017-08-10T03:02:26.037Z,0
2017-08-10T03:03:47.532Z,0
2017-08-10T03:04:48.943Z,0
2017-08-10T03:06:10.459Z,0
2017-08-10T03:07:11.869Z,0
2017-08-10T03:08:33.373Z,0
2017-08-10T03:09:34.782Z,0
2017-08-10T03:10:56.300Z,0
2017-08-10T03:11:57.709Z,0
2017-08-10T03:13:19.201Z,0
2017-08-10T03:14:20.611Z,0
2017-08-10T03:15:42.111Z,0
2017-08-10T03:16:43.521Z,0
2017-08-10T03:18:05.038Z,0
2017-08-10T03:19:06.449Z,0
2017-08-10T03:20:27.948Z,0
2017-08-10T03:21:29.353Z,0
2017-08-10T03:22:50.872Z,0
2017-08-10T03:23:52.282Z,0
2017-08-10T03:25:13.778Z,0
2017-08-10T03:26:15.189Z,0
2017-08-10T03:27:36.705Z,0
2017-08-10T03:28:38.117Z,0
2017-08-10T03:29:59.611Z,0
2017-08-10T03:31:01.039Z,0
2017-08-10T03:32:22.550Z,0
2017-08-10T03:33:23.960Z,4
2017-08-10T03:34:45.453Z,4
2017-08-10T03:35:46.864Z,4
2017-08-10T03:37:08.379Z,4
2017-08-10T03:38:09.790Z,4
2017-08-10T03:39:31.287Z,4
2017-08-10T03:40:32.696Z,8
2017-08-10T03:41:54.214Z,4
2017-08-10T03:42:55.623Z,8
2017-08-10T03:44:17.121Z,12
2017-08-10T03:45:18.531Z,12
2017-08-10T03:46:40.046Z,12
2017-08-10T03:47:41.461Z,16
2017-08-10T03:49:02.959Z,16
2017-08-10T03:50:04.369Z,16
2017-08-10T03:51:25.883Z,20
2017-08-10T03:52:27.297Z,24
2017-08-10T03:53:48.796Z,32
2017-08-10T03:54:50.206Z,32
2017-08-10T03:56:11.735Z,36
2017-08-10T03:57:13.138Z,40
2017-08-10T03:58:34.634Z,44
2017-08-10T03:59:36.044Z,52
2017-08-10T04:00:57.540Z,64
2017-08-10T04:01:58.954Z,72
2017-08-10T04:03:20.468Z,92
2017-08-10T04:04:21.881Z,108
2017-08-10T04:05:43.379Z,140
2017-08-10T04:06:44.791Z,168
2017-08-10T04:08:06.317Z,200
2017-08-10T04:09:07.727Z,216
2017-08-10T04:10:29.228Z,228
2017-08-10T04:11:30.641Z,240
2017-08-10T04:12:52.160Z,256
2017-08-10T04:13:53.576Z,280
2017-08-10T04:15:15.072Z,300
2017-08-10T04:16:16.484Z,316
2017-08-10T04:17:38.007Z,320
2017-08-10T04:18:39.423Z,324
2017-08-10T04:20:00.923Z,336
2017-08-10T04:21:02.336Z,360
2017-08-10T04:22:23.854Z,392
2017-08-10T04:23:25.268Z,432
2017-08-10T04:24:46.771Z,476
2017-08-10T04:25:48.183Z,480
2017-08-10T04:27:10.696Z,496
2017-08-10T04:28:12.107Z,536
2017-08-10T04:29:33.607Z,636
2017-08-10T04:30:35.018Z,756
2017-08-10T04:31:56.535Z,856
2017-08-10T04:32:57.955Z,900
2017-08-10T04:34:19.450Z,984
2017-08-10T04:35:20.862Z,1064
2017-08-10T04:36:42.381Z,1116
2017-08-10T04:37:43.807Z,1124
2017-08-10T04:39:05.298Z,1128
2017-08-10T04:40:06.712Z,1144
2017-08-10T04:41:28.235Z,1112
2017-08-10T04:42:29.650Z,1108
2017-08-10T04:43:51.150Z,1248
2017-08-10T04:44:52.562Z,1412
2017-08-10T04:46:14.556Z,1572
2017-08-10T07:00:34.778Z,4000
2017-08-10T07:01:36.196Z,3848
2017-08-10T07:02:57.718Z,3720
2017-08-10T07:03:59.134Z,3672
2017-08-10T07:05:20.641Z,3580
2017-08-10T07:06:22.058Z,3504
2017-08-10T07:07:43.579Z,3468
2017-08-10T07:08:44.995Z,3496
2017-08-10T07:10:06.663Z,3552
2017-08-10T07:11:08.084Z,3564
2017-08-10T07:12:29.609Z,3516
2017-08-10T07:13:31.025Z,3444
2017-08-10T07:14:52.528Z,3364
2017-08-10T07:15:53.945Z,3340
2017-08-10T07:17:15.471Z,3380
2017-08-10T07:18:16.887Z,3436
2017-08-10T07:19:38.393Z,3472
2017-08-10T07:20:39.809Z,3472
2017-08-10T07:22:01.311Z,3508
2017-08-10T07:23:02.726Z,3588
2017-08-10T07:24:24.248Z,3764
2017-08-10T07:25:25.666Z,3884
2017-08-10T07:26:47.173Z,4012
2017-08-10T07:27:48.590Z,4184
2017-08-10T07:29:10.115Z,4584
2017-08-10T07:30:11.533Z,4900
2017-08-10T07:31:33.039Z,5172
2017-08-10T07:32:34.455Z,5280
2017-08-10T07:33:55.980Z,5356
2017-08-10T07:34:57.397Z,5324
2017-08-10T07:36:18.904Z,5344
2017-08-10T07:37:20.322Z,5480
2017-08-10T07:38:41.847Z,5696
2017-08-10T07:39:43.263Z,5648
2017-08-10T07:41:04.767Z,5216
2017-08-10T07:42:06.184Z,5032
2017-08-10T07:43:27.728Z,5124
2017-08-10T07:44:29.130Z,5376
2017-08-10T07:45:50.637Z,5628
2017-08-10T07:46:52.056Z,5480
2017-08-10T07:48:13.581Z,5248
2017-08-10T07:49:14.997Z,5308
2017-08-10T07:50:36.506Z,5644
2017-08-10T07:51:37.920Z,6004
2017-08-10T07:53:00.443Z,6564
2017-08-10T07:54:01.858Z,7008
2017-08-10T07:55:23.362Z,7280
2017-08-10T07:56:24.780Z,7188
2017-08-10T07:57:46.306Z,7024
2017-08-10T07:58:47.724Z,7216
2017-08-10T08:00:09.231Z,7744
2017-08-10T08:01:10.651Z,8124
2017-08-10T08:02:32.310Z,8248
2017-08-10T08:03:33.728Z,8060
2017-08-10T08:04:55.235Z,7752
2017-08-10T08:05:56.654Z,7656
2017-08-10T08:07:18.166Z,7816
2017-08-10T08:08:19.584Z,7996
2017-08-10T08:09:41.107Z,8256
2017-08-10T08:10:42.526Z,8572
2017-08-10T08:12:04.033Z,9068
2017-08-10T08:13:05.450Z,9548
2017-08-10T08:14:26.980Z,10272
2017-08-10T08:15:28.398Z,10784
2017-08-10T08:16:49.913Z,11492
2017-08-10T08:17:51.330Z,11944
2017-08-10T08:19:12.861Z,11760
2017-08-10T08:20:14.280Z,11256
2017-08-10T08:21:35.793Z,10976
2017-08-10T08:22:37.211Z,11164
2017-08-10T08:24:00.233Z,11488
2017-08-10T08:25:01.654Z,11276
2017-08-10T08:26:23.166Z,10656
2017-08-10T08:27:24.584Z,10356
2017-08-10T08:28:46.115Z,10664
2017-08-10T08:29:47.535Z,10760
2017-08-10T08:31:09.048Z,10252
2017-08-10T08:32:10.467Z,10008
2017-08-10T08:33:32.500Z,10060
2017-08-10T08:34:33.921Z,10348
2017-08-10T08:35:55.437Z,10860
2017-08-10T08:36:56.856Z,11296
2017-08-10T08:38:18.387Z,11504
2017-08-10T08:39:19.806Z,11216
2017-08-10T08:40:41.323Z,10076
2017-08-10T08:41:42.734Z,8956
2017-08-10T08:43:04.259Z,8068
2017-08-10T08:44:05.680Z,7988
2017-08-10T08:45:27.186Z,8416
2017-08-10T08:46:28.604Z,9228
2017-08-10T08:47:51.133Z,10920
2017-08-10T08:48:52.552Z,12180
2017-08-10T08:50:14.278Z,12868
2017-08-10T08:51:15.698Z,12392
2017-08-10T08:52:37.209Z,11284
2017-08-10T08:53:38.629Z,10564
2017-08-10T08:55:00.344Z,9960
2017-08-10T08:56:01.766Z,10028
2017-08-10T08:57:23.275Z,10400
2017-08-10T08:58:24.710Z,10492
2017-08-10T08:59:46.226Z,10212
2017-08-10T09:00:47.645Z,9672
2017-08-10T09:02:09.158Z,9588
2017-08-10T09:03:10.586Z,10000
2017-08-10T09:04:32.115Z,10552
2017-08-10T09:05:33.534Z,10920
2017-08-10T09:06:55.048Z,11504
2017-08-10T09:07:56.469Z,11768
2017-08-10T09:09:18.002Z,11624
2017-08-10T09:10:19.419Z,11236
2017-08-10T09:11:40.932Z,10948
2017-08-10T09:12:42.351Z,11112
2017-08-10T09:14:03.886Z,11688
2017-08-10T09:15:05.307Z,12328
2017-08-10T09:16:26.823Z,13108
2017-08-10T09:17:28.243Z,13316
2017-08-10T09:18:50.125Z,12656
2017-08-10T09:19:53.470Z,11572
2017-08-10T09:21:17.436Z,10196
2017-08-10T09:49:50.028Z,16360
2017-08-10T09:50:51.451Z,16588
2017-08-10T09:52:12.962Z,17408
2017-08-10T09:53:14.382Z,17568
2017-08-10T09:54:35.913Z,17216
2017-08-10T09:55:37.333Z,16684
2017-08-10T09:56:58.851Z,17216
2017-08-10T09:58:00.272Z,17952
2017-08-10T09:59:21.807Z,18304
2017-08-10T10:00:23.226Z,17632
2017-08-10T10:01:44.738Z,16676
2017-08-10T10:02:46.161Z,16600
2017-08-10T10:04:07.690Z,16756
2017-08-10T10:05:09.114Z,16660
2017-08-10T10:06:30.628Z,16164
2017-08-10T10:07:32.054Z,15792
2017-08-10T10:08:53.602Z,15688
2017-08-10T10:10:34.492Z,15940
2017-08-10T10:12:15.379Z,15948
2017-08-10T10:13:16.806Z,15660
2017-08-10T10:14:38.339Z,15456
2017-08-10T10:15:39.761Z,15828
2017-08-10T10:17:01.279Z,17376
2017-08-10T10:18:02.701Z,18464
2017-08-10T10:19:24.232Z,17856
2017-08-10T10:20:25.656Z,15512
2017-08-10T10:21:47.174Z,12224
2017-08-10T10:22:48.596Z,10600
2017-08-10T10:24:10.127Z,9160
2017-08-10T10:25:11.552Z,8408
2017-08-10T10:26:33.070Z,7900
2017-08-10T10:27:34.489Z,7888
2017-08-10T10:28:56.023Z,7864
2017-08-10T10:29:57.445Z,7840
2017-08-10T10:31:18.960Z,8032
2017-08-10T10:32:20.381Z,8500
2017-08-10T10:33:41.913Z,9052
2017-08-10T10:34:43.337Z,9660
2017-08-10T10:36:04.859Z,10988
2017-08-10T10:37:06.284Z,11036
2017-08-10T10:38:27.822Z,10168
2017-08-10T10:39:29.243Z,10200
2017-08-10T10:40:50.760Z,10024
2017-08-10T10:41:52.182Z,10496
2017-08-10T10:43:13.910Z,10908
2017-08-10T10:44:15.329Z,10336
2017-08-10T10:45:37.062Z,9316
2017-08-10T10:46:38.483Z,8548
2017-08-10T10:47:59.999Z,7992
2017-08-10T10:49:01.420Z,8032
2017-08-10T10:50:22.952Z,8192
2017-08-10T10:51:24.375Z,8020
2017-08-10T10:52:45.889Z,8152
2017-08-10T10:53:47.311Z,8672
2017-08-10T10:55:08.840Z,10096
2017-08-10T10:56:10.263Z,10968
2017-08-10T10:57:31.783Z,12256
2017-08-10T10:58:33.203Z,13240
2017-08-10T10:59:54.741Z,14576
2017-08-10T11:00:56.163Z,15128
2017-08-10T11:02:18.671Z,14008
2017-08-10T11:03:20.096Z,12224
2017-08-10T11:04:41.626Z,10616
2017-08-10T11:05:43.048Z,9364
2017-08-10T11:07:04.557Z,8404
2017-08-10T11:08:05.979Z,8760
2017-08-10T11:09:27.508Z,9220
2017-08-10T11:10:28.930Z,8876
2017-08-10T11:11:50.441Z,8416
2017-08-10T11:12:52.097Z,8400
2017-08-10T11:14:13.635Z,8576
2017-08-10T11:15:15.211Z,8516
2017-08-10T11:16:37.082Z,8288
2017-08-10T11:17:38.508Z,8576
2017-08-10T11:19:00.292Z,9296
2017-08-10T11:20:01.722Z,9836
2017-08-10T11:21:23.240Z,10420
2017-08-10T11:22:24.659Z,10804
2017-08-10T11:23:46.194Z,11348
2017-08-10T11:24:47.614Z,11536
2017-08-10T11:26:09.609Z,11844
2017-08-10T11:27:10.996Z,12416
2017-08-10T11:28:32.538Z,13792
2017-08-10T11:29:33.958Z,15044
2017-08-10T11:30:55.477Z,16380
2017-08-10T11:31:56.898Z,16804
2017-08-10T11:33:18.415Z,16408
2017-08-10T11:34:19.839Z,15436
2017-08-10T11:35:41.375Z,14720
2017-08-10T11:36:42.794Z,15348
2017-08-10T11:38:04.320Z,16364
2017-08-10T11:39:05.747Z,16824
2017-08-10T11:40:27.273Z,17216
2017-08-10T11:41:28.722Z,16992
2017-08-10T11:42:51.213Z,16512
2017-08-10T11:43:52.635Z,16312
2017-08-10T11:45:14.195Z,15916
2017-08-10T11:46:15.619Z,15740
2017-08-10T11:47:37.129Z,14848
2017-08-10T11:48:38.554Z,14008
2017-08-10T11:50:00.098Z,13684
2017-08-10T11:51:01.523Z,13960
2017-08-10T11:52:24.230Z,13928
2017-08-10T11:53:25.652Z,13444
2017-08-10T11:54:47.184Z,12540
2017-08-10T11:55:48.606Z,11972
2017-08-10T11:57:10.120Z,11280
2017-08-10T11:58:11.546Z,11276
2017-08-10T11:59:33.075Z,11796
2017-08-10T12:00:34.501Z,12040
2017-08-10T12:01:56.014Z,12932
2017-08-10T12:03:36.922Z,14220
2017-08-10T12:04:38.379Z,14612
2017-08-10T12:06:01.089Z,14792
2017-08-10T12:07:02.507Z,14868
2017-08-10T12:08:24.030Z,14196
2017-08-10T12:09:25.452Z,13740
2017-08-10T12:10:47.472Z,12952
2017-08-10T12:11:48.899Z,11600
2017-08-10T12:13:10.586Z,9784
2017-08-10T12:14:12.012Z,9424
2017-08-10T12:15:33.548Z,9556
2017-08-10T12:16:34.968Z,9880
2017-08-10T12:17:56.487Z,10560
2017-08-10T12:18:57.912Z,11320
2017-08-10T12:20:19.443Z,12272
2017-08-10T12:21:20.864Z,13032
2017-08-10T12:22:42.375Z,14288
2017-08-10T12:23:44.087Z,14632
2017-08-10T12:25:05.606Z,13784
2017-08-10T12:26:07.028Z,12840
2017-08-10T12:27:28.548Z,12364
2017-08-10T12:28:29.969Z,12184
2017-08-10T12:29:51.506Z,11752
2017-08-10T12:30:52.929Z,11716
2017-08-10T12:32:14.607Z,12440
2017-08-10T12:33:16.031Z,13540
2017-08-10T12:34:37.561Z,14672
2017-08-10T12:35:38.985Z,14952
2017-08-10T12:37:00.503Z,16184
2017-08-10T12:38:01.922Z,17504
2017-08-10T12:39:23.456Z,17792
2017-08-10T12:40:24.880Z,16304
2017-08-10T12:41:46.416Z,13080
2017-08-10T12:42:47.838Z,11076
2017-08-10T12:44:09.376Z,9784
2017-08-10T12:45:10.798Z,9760
2017-08-10T12:46:32.312Z,11312
2017-08-10T12:47:33.737Z,13644
2017-08-10T12:48:55.269Z,16588
2017-08-10T12:49:56.697Z,16412
2017-08-10T12:51:18.216Z,15452
2017-08-10T12:52:19.638Z,14836
2017-08-10T12:53:41.160Z,13492
2017-08-10T12:54:42.583Z,11616
2017-08-10T12:56:04.114Z,9912
2017-08-10T12:57:05.534Z,9756
2017-08-10T12:58:27.046Z,10712
2017-08-10T12:59:28.485Z,10948
2017-08-10T13:00:50.013Z,10380
2017-08-10T13:01:51.436Z,9844
2017-08-10T13:03:12.948Z,9472
2017-08-10T13:04:14.372Z,9908
2017-08-10T13:05:35.920Z,12028
2017-08-10T13:06:37.814Z,14196
2017-08-10T13:07:59.308Z,15712
2017-08-10T13:09:01.757Z,15520
2017-08-10T13:10:23.291Z,15124
2017-08-10T13:11:24.714Z,14712
2017-08-10T13:12:46.225Z,13988
2017-08-10T13:13:47.651Z,13708
2017-08-10T13:15:10.585Z,13168
2017-08-10T13:16:11.894Z,12108
2017-08-10T13:17:33.398Z,10456
2017-08-10T13:18:34.819Z,9304
2017-08-10T13:19:56.364Z,8304
2017-08-10T13:21:37.251Z,7568
2017-08-10T13:23:18.138Z,7072
2017-08-10T13:24:19.559Z,6936
2017-08-10T13:25:41.605Z,7392
2017-08-10T13:26:43.002Z,7344
2017-08-10T13:28:04.514Z,7524
2017-08-10T13:29:05.933Z,7748
2017-08-10T13:30:27.468Z,7548
2017-08-10T13:31:28.888Z,7060
2017-08-10T13:32:50.406Z,6412
2017-08-10T13:33:51.821Z,6024
2017-08-10T13:35:13.485Z,5472
2017-08-10T13:36:14.903Z,5128
2017-08-10T13:37:36.415Z,4828
2017-08-10T13:38:37.836Z,4720
2017-08-10T13:39:59.372Z,4620
2017-08-10T13:41:00.792Z,4560
2017-08-10T13:42:22.537Z,4588
2017-08-10T13:43:23.959Z,4708
2017-08-10T13:44:45.493Z,4832
2017-08-10T13:45:46.916Z,4788
2017-08-10T13:47:08.428Z,4528
2017-08-10T13:48:09.848Z,4340
2017-08-10T13:49:31.588Z,4264
2017-08-10T13:50:33.011Z,4436
2017-08-10T13:51:54.541Z,4840
2017-08-10T13:52:55.962Z,5096
2017-08-10T13:54:17.475Z,5128
2017-08-10T13:55:18.895Z,5008
2017-08-10T13:56:40.424Z,4844
2017-08-10T13:57:41.845Z,4884
2017-08-10T13:59:03.357Z,5232
2017-08-10T14:00:04.791Z,5700
2017-08-10T14:01:26.307Z,6188
2017-08-10T14:02:27.732Z,6468
2017-08-10T14:03:49.240Z,6980
2017-08-10T14:04:50.660Z,7332
2017-08-10T14:06:12.189Z,7420
2017-08-10T14:07:13.610Z,7304
2017-08-10T14:08:35.120Z,7252
2017-08-10T14:09:36.540Z,7168
2017-08-10T14:10:58.069Z,6992
2017-08-10T14:11:59.490Z,7044
2017-08-10T14:13:21.006Z,7212
2017-08-10T14:14:22.422Z,7252
2017-08-10T14:15:43.966Z,7400
2017-08-10T14:16:45.388Z,7444
2017-08-10T14:18:06.985Z,7036
2017-08-10T14:19:08.412Z,6584
2017-08-10T14:20:29.942Z,6068
2017-08-10T14:21:31.378Z,5660
2017-08-10T14:22:52.874Z,4796
2017-08-10T14:23:54.293Z,4412
2017-08-10T14:25:15.824Z,4164
2017-08-10T14:26:17.244Z,4176
2017-08-10T14:27:38.756Z,4308
2017-08-10T14:28:41.284Z,4444
2017-08-10T14:30:02.748Z,4820
2017-08-10T14:31:04.634Z,5428
2017-08-10T14:32:26.160Z,6168
2017-08-10T14:33:27.584Z,6556
2017-08-10T14:34:49.100Z,6748
2017-08-10T14:35:50.521Z,6748
2017-08-10T14:37:12.051Z,6696
2017-08-10T14:38:13.474Z,6588
2017-08-10T14:39:35.196Z,6528
2017-08-10T14:40:36.616Z,6816
2017-08-10T14:41:58.346Z,7440
2017-08-10T14:42:59.766Z,7860
2017-08-10T14:44:21.273Z,7880
2017-08-10T14:45:22.693Z,7672
2017-08-10T14:46:44.242Z,7520
2017-08-10T14:47:45.663Z,7620
2017-08-10T14:49:07.175Z,8016
2017-08-10T14:50:08.595Z,8360
2017-08-10T14:51:30.128Z,8864
2017-08-10T14:52:31.551Z,9156
2017-08-10T14:53:53.062Z,9364
2017-08-10T14:54:54.482Z,9412
2017-08-10T14:56:16.020Z,9408
2017-08-10T14:57:17.439Z,9360
2017-08-10T14:58:38.953Z,9176
2017-08-10T14:59:40.397Z,9132
2017-08-10T15:01:01.919Z,9136
2017-08-10T15:02:03.342Z,9044
2017-08-10T15:03:24.861Z,9120
2017-08-10T15:04:26.278Z,9288
2017-08-10T15:05:47.805Z,8976
2017-08-10T15:06:49.228Z,8484
2017-08-10T15:08:10.739Z,8028
2017-08-10T15:09:12.160Z,7924
2017-08-10T15:10:33.690Z,7904
2017-08-10T15:11:35.110Z,7800
2017-08-10T15:12:56.624Z,7388
2017-08-10T15:13:58.043Z,6988
2017-08-10T15:15:19.556Z,6444
2017-08-10T15:16:20.978Z,5964
2017-08-10T15:17:42.626Z,5320
2017-08-10T15:18:44.070Z,5068
2017-08-10T15:20:05.628Z,5068
2017-08-10T15:21:07.042Z,5092
2017-08-10T15:22:28.576Z,4880
2017-08-10T15:23:29.996Z,4660
2017-08-10T15:24:51.511Z,4804
2017-08-10T15:25:52.930Z,5052
2017-08-10T15:27:14.456Z,4968
2017-08-10T15:28:15.878Z,4796
2017-08-10T15:29:37.386Z,4812
2017-08-10T15:30:38.806Z,4760
2017-08-10T15:32:00.518Z,4424
2017-08-10T15:33:01.941Z,4056
2017-08-10T15:34:23.461Z,3804
2017-08-10T15:35:24.924Z,3796
2017-08-10T15:36:46.460Z,3884
2017-08-10T15:37:48.148Z,3964
2017-08-10T15:39:09.910Z,3984
2017-08-10T15:40:11.333Z,3856
2017-08-10T15:41:32.972Z,3572
2017-08-10T15:43:13.864Z,3092
2017-08-10T15:44:15.282Z,2732
2017-08-10T15:45:36.839Z,2364
2017-08-10T15:46:38.650Z,2232
2017-08-10T15:48:01.406Z,2264
2017-08-10T15:49:02.833Z,2444
2017-08-10T15:50:24.366Z,2836
2017-08-10T15:51:25.791Z,3044
2017-08-10T15:52:47.324Z,3044
2017-08-10T15:53:48.746Z,3008
2017-08-10T15:55:10.258Z,3196
2017-08-10T15:56:12.570Z,3548
2017-08-10T15:57:34.140Z,4060
2017-08-10T15:58:35.559Z,4120
2017-08-10T15:59:57.076Z,3720
2017-08-10T16:00:58.500Z,3420
2017-08-10T16:02:20.027Z,3020
2017-08-10T16:03:21.446Z,2744
2017-08-10T16:04:42.957Z,2512
2017-08-10T16:05:44.416Z,2440
2017-08-10T16:07:06.978Z,2420
2017-08-10T16:08:08.400Z,2388
2017-08-10T16:09:29.950Z,2304
2017-08-10T16:10:31.374Z,2256
2017-08-10T16:11:52.909Z,2196
2017-08-10T16:12:54.332Z,2140
2017-08-10T16:14:15.845Z,2088
2017-08-10T16:15:17.275Z,2104
2017-08-10T16:16:38.844Z,2224
2017-08-10T16:17:40.264Z,2404
2017-08-10T16:19:02.769Z,2640
2017-08-10T16:20:04.218Z,2680
2017-08-10T16:21:25.759Z,2496
2017-08-10T16:23:06.639Z,2160
2017-08-10T16:24:08.058Z,2068
2017-08-10T16:25:29.693Z,2156
2017-08-10T16:26:31.112Z,2300
2017-08-10T16:27:52.681Z,2452
2017-08-10T16:28:54.094Z,2472
2017-08-10T16:30:15.635Z,2412
2017-08-10T16:31:17.110Z,2340
2017-08-10T16:32:38.898Z,2264
2017-08-10T16:33:40.315Z,2288
2017-08-10T16:35:01.823Z,2400
2017-08-10T16:36:03.245Z,2508
2017-08-10T16:37:24.776Z,2788
2017-08-10T16:38:26.198Z,3036
2017-08-10T16:39:47.714Z,3088
2017-08-10T16:40:49.133Z,2864
2017-08-10T16:42:10.850Z,2488
2017-08-10T16:43:12.269Z,2288
2017-08-10T16:44:33.975Z,2132
2017-08-10T16:45:35.512Z,2104
2017-08-10T16:46:57.036Z,2236
2017-08-10T16:47:58.467Z,2460
2017-08-10T16:49:20.001Z,2852
2017-08-10T16:50:21.419Z,3124
2017-08-10T16:51:42.955Z,3364
2017-08-10T16:52:44.375Z,3476
2017-08-10T16:54:05.890Z,3644
2017-08-10T16:55:07.307Z,3860
2017-08-10T16:56:28.816Z,4088
2017-08-10T16:57:30.236Z,4072
2017-08-10T16:58:51.763Z,3816
2017-08-10T16:59:53.183Z,3588
2017-08-10T17:01:14.691Z,3500
2017-08-10T17:02:16.116Z,3636
2017-08-10T17:03:37.646Z,4068
2017-08-10T17:04:39.101Z,4476
2017-08-10T17:06:00.609Z,4708
2017-08-10T17:07:02.027Z,4436
2017-08-10T17:08:23.555Z,3796
2017-08-10T17:09:24.975Z,3288
2017-08-10T17:10:46.485Z,2856
2017-08-10T17:11:48.029Z,2676
2017-08-10T17:13:15.924Z,2324
2017-08-10T17:14:17.373Z,1928
2017-08-10T17:15:38.993Z,1516
2017-08-10T17:16:40.410Z,1324
2017-08-10T17:18:01.952Z,1148
2017-08-10T17:19:03.389Z,1004
2017-08-10T17:20:24.950Z,832
2017-08-10T17:21:26.591Z,728
2017-08-10T17:22:48.250Z,636
2017-08-10T17:23:49.672Z,600
2017-08-10T17:25:11.411Z,576
2017-08-10T17:26:12.835Z,560
2017-08-10T17:27:34.502Z,540
2017-08-10T17:28:35.919Z,548
2017-08-10T17:29:57.647Z,576
2017-08-10T17:30:59.067Z,624
2017-08-10T17:32:20.604Z,680
2017-08-10T17:33:22.020Z,708
2017-08-10T17:34:43.931Z,728
2017-08-10T17:35:45.367Z,740
2017-08-10T17:37:06.925Z,776
2017-08-10T17:38:08.321Z,840
2017-08-10T17:39:29.825Z,876
2017-08-10T17:40:31.320Z,852
2017-08-10T17:41:54.001Z,760
2017-08-10T17:42:55.449Z,664
2017-08-10T17:44:16.987Z,544
2017-08-10T17:45:18.406Z,500
2017-08-10T17:46:39.941Z,432
2017-08-10T17:47:41.357Z,376
2017-08-10T17:49:02.882Z,332
2017-08-10T17:50:04.370Z,300
2017-08-10T17:51:25.895Z,272
2017-08-10T17:52:27.310Z,248
2017-08-10T17:53:48.852Z,220
2017-08-10T17:54:50.267Z,212
2017-08-10T17:56:12.264Z,220
2017-08-10T17:57:13.966Z,228
2017-08-10T17:58:35.497Z,244
2017-08-10T17:59:36.915Z,268
2017-08-10T18:01:00.317Z,292
2017-08-10T18:02:01.577Z,292
2017-08-10T18:03:23.106Z,284
2017-08-10T18:04:24.522Z,284
2017-08-10T18:05:46.033Z,276
2017-08-10T18:06:47.570Z,280
2017-08-10T18:08:09.102Z,292
2017-08-10T18:09:10.882Z,296
2017-08-10T18:10:32.560Z,316
2017-08-10T18:11:34.594Z,336
2017-08-10T18:12:56.130Z,344
2017-08-10T18:13:57.546Z,348
2017-08-10T18:15:22.820Z,336
2017-08-10T18:16:24.239Z,328
2017-08-10T18:17:45.774Z,300
2017-08-10T18:18:47.191Z,280
2017-08-10T18:20:08.700Z,252
2017-08-10T18:21:10.115Z,244
2017-08-10T18:22:31.659Z,240
2017-08-10T18:23:33.076Z,240
2017-08-10T18:24:54.609Z,220
2017-08-10T18:26:35.519Z,184
2017-08-10T18:28:16.409Z,176
2017-08-10T18:29:17.823Z,176
2017-08-10T18:30:39.435Z,168
2017-08-10T18:31:40.936Z,156
2017-08-10T18:33:02.449Z,136
2017-08-10T18:34:03.863Z,124
2017-08-10T18:35:25.378Z,108
2017-08-10T18:36:27.710Z,100
2017-08-10T18:37:49.688Z,92
2017-08-10T18:38:51.106Z,92
2017-08-10T18:40:12.790Z,88
2017-08-10T18:41:14.225Z,84
2017-08-10T18:42:35.832Z,72
2017-08-10T18:43:37.434Z,68
2017-08-10T18:44:58.945Z,56
2017-08-10T18:46:00.390Z,52
2017-08-10T18:47:21.914Z,48
2017-08-10T18:48:23.441Z,44
2017-08-10T18:49:44.972Z,36
2017-08-10T18:50:46.382Z,36
2017-08-10T18:52:07.898Z,28
2017-08-10T18:53:09.310Z,28
2017-08-10T18:54:31.034Z,28
2017-08-10T18:55:32.446Z,28
2017-08-10T18:56:53.948Z,24
2017-08-10T18:58:35.528Z,20